Time;durP1;ratioP1;P1;durP2;ratioP2;P2;SDS_P1;SDS_P2;PMS_P1;PMS_P2;Temp;Humidity;BMP_temperature;BMP_pressure;BME280_temperature;BME280_humidity;BME280_pressure;Samples;Min_cycle;Max_cycle;Signal;HPM_P1;HPM_P2
2023/08/13 00:00:44;;;;;;;5.13;4.60;;;;;;;;;;6173005;28;20208;-65
2023/08/13 00:03:46;;;;;;;5.27;4.30;;;;;;;;;;6167001;28;20323;-65
2023/08/13 00:06:47;;;;;;;4.83;4.33;;;;;;;;;;6159818;28;20267;-65
2023/08/13 00:09:48;;;;;;;5.70;4.70;;;;;;;;;;6167468;28;20284;-66
2023/08/13 00:12:49;;;;;;;5.80;4.80;;;;;;;;;;6164762;28;20185;-65
2023/08/13 00:15:50;;;;;;;4.93;4.53;;;;;;;;;;6166821;28;20196;-65
2023/08/13 00:18:51;;;;;;;7.63;4.73;;;;;;;;;;6160149;28;20250;-65
2023/08/13 00:21:52;;;;;;;5.13;4.67;;;;;;;;;;6170981;28;20215;-65
2023/08/13 00:24:55;;;;;;;5.70;4.63;;;;;;;;;;6159737;28;20196;-65
2023/08/13 00:27:56;;;;;;;5.00;4.60;;;;;;;;;;6159304;28;20196;-65
2023/08/13 00:30:57;;;;;;;5.87;5.03;;;;;;;;;;6165470;28;20193;-65
2023/08/13 00:33:58;;;;;;;5.57;5.07;;;;;;;;;;6169658;28;20205;-65
2023/08/13 00:36:59;;;;;;;7.40;4.70;;;;;;;;;;6171390;28;20196;-65
2023/08/13 00:40:00;;;;;;;5.30;4.80;;;;;;;;;;6159055;28;20201;-65
2023/08/13 00:43:02;;;;;;;6.90;4.93;;;;;;;;;;6170429;28;20254;-65
2023/08/13 00:46:03;;;;;;;6.20;5.60;;;;;;;;;;6167216;28;20221;-65
2023/08/13 00:49:04;;;;;;;5.80;5.20;;;;;;;;;;6173921;28;20190;-64
2023/08/13 00:52:06;;;;;;;5.07;4.40;;;;;;;;;;6171885;28;20203;-65
2023/08/13 00:55:07;;;;;;;6.37;4.93;;;;;;;;;;6159596;28;20197;-65
2023/08/13 00:58:08;;;;;;;5.30;4.70;;;;;;;;;;6173067;28;20211;-65
2023/08/13 01:01:10;;;;;;;5.80;5.23;;;;;;;;;;6165617;28;20238;-65
2023/08/13 01:04:11;;;;;;;6.03;5.10;;;;;;;;;;6174017;28;20232;-65
2023/08/13 01:07:19;;;;;;;6.00;4.80;;;;;;;;;;6165327;28;20236;-65
2023/08/13 01:10:20;;;;;;;5.10;4.60;;;;;;;;;;6175488;28;20197;-65
2023/08/13 01:13:31;;;;;;;6.17;5.57;;;;;;;;;;6172225;28;20199;-65
2023/08/13 01:16:33;;;;;;;7.17;5.47;;;;;;;;;;6183127;28;20191;-65
2023/08/13 01:19:34;;;;;;;7.47;5.50;;;;;;;;;;6174929;28;20217;-65
2023/08/13 01:22:39;;;;;;;5.53;5.03;;;;;;;;;;6175050;28;20219;-65
2023/08/13 01:25:45;;;;;;;5.77;5.27;;;;;;;;;;6175758;28;20197;-65
2023/08/13 01:28:48;;;;;;;5.77;5.07;;;;;;;;;;6176962;28;20220;-65
2023/08/13 01:31:50;;;;;;;5.60;4.80;;;;;;;;;;6174635;28;20197;-64
2023/08/13 01:34:51;;;;;;;6.33;5.37;;;;;;;;;;6165527;28;20204;-64
2023/08/13 01:37:53;;;;;;;6.43;5.83;;;;;;;;;;6188273;28;20201;-64
2023/08/13 01:40:54;;;;;;;8.23;5.40;;;;;;;;;;6158932;28;20248;-65
2023/08/13 01:43:55;;;;;;;6.00;5.37;;;;;;;;;;6163906;28;20241;-65
2023/08/13 01:46:56;;;;;;;5.40;4.90;;;;;;;;;;6172510;28;20224;-65
2023/08/13 01:49:57;;;;;;;6.40;5.30;;;;;;;;;;6163094;28;20189;-65
2023/08/13 01:52:58;;;;;;;5.67;5.17;;;;;;;;;;6193772;28;20210;-65
2023/08/13 01:55:59;;;;;;;5.87;5.27;;;;;;;;;;6168678;28;20293;-64
2023/08/13 01:59:00;;;;;;;6.20;5.70;;;;;;;;;;6163397;28;20192;-64
2023/08/13 02:02:01;;;;;;;6.90;5.63;;;;;;;;;;6162258;28;20223;-65
2023/08/13 02:05:02;;;;;;;6.00;5.40;;;;;;;;;;6166234;28;20233;-65
2023/08/13 02:08:03;;;;;;;5.87;5.27;;;;;;;;;;6173198;28;20217;-65
2023/08/13 02:11:04;;;;;;;5.20;4.70;;;;;;;;;;6169541;28;20247;-65
2023/08/13 02:14:05;;;;;;;6.77;5.00;;;;;;;;;;6159289;28;20221;-65
2023/08/13 02:17:12;;;;;;;6.07;5.07;;;;;;;;;;6162361;28;20275;-65
2023/08/13 02:20:13;;;;;;;5.90;5.40;;;;;;;;;;6171955;28;20213;-65
2023/08/13 02:23:14;;;;;;;5.17;4.67;;;;;;;;;;6187580;28;20283;-65
2023/08/13 02:26:15;;;;;;;6.77;5.23;;;;;;;;;;6181400;28;20197;-65
2023/08/13 02:29:16;;;;;;;8.50;5.27;;;;;;;;;;6169977;28;20204;-65
2023/08/13 02:32:17;;;;;;;5.83;5.33;;;;;;;;;;6177352;28;20199;-65
2023/08/13 02:35:18;;;;;;;5.70;5.10;;;;;;;;;;6165433;28;20200;-65
2023/08/13 02:38:19;;;;;;;5.20;4.80;;;;;;;;;;6161696;28;20203;-65
2023/08/13 02:41:20;;;;;;;7.60;5.83;;;;;;;;;;6172943;28;20311;-65
2023/08/13 02:44:22;;;;;;;6.13;5.63;;;;;;;;;;6170835;28;20234;-65
2023/08/13 02:47:24;;;;;;;6.20;5.53;;;;;;;;;;6149790;28;20193;-65
2023/08/13 02:50:25;;;;;;;6.17;5.57;;;;;;;;;;6164407;28;20193;-65
2023/08/13 02:53:26;;;;;;;5.60;5.10;;;;;;;;;;6161860;28;20199;-65
2023/08/13 02:56:27;;;;;;;5.97;5.33;;;;;;;;;;6164608;28;20193;-65
2023/08/13 02:59:28;;;;;;;6.07;5.57;;;;;;;;;;6161973;28;20192;-65
2023/08/13 03:02:29;;;;;;;6.10;4.97;;;;;;;;;;6177290;28;20224;-65
2023/08/13 03:05:32;;;;;;;5.80;5.30;;;;;;;;;;6161474;28;20243;-65
2023/08/13 03:08:33;;;;;;;6.03;5.50;;;;;;;;;;6177516;28;20189;-65
2023/08/13 03:11:34;;;;;;;5.27;4.77;;;;;;;;;;6153635;28;20205;-66
2023/08/13 03:14:35;;;;;;;5.87;5.27;;;;;;;;;;6172779;28;20255;-66
2023/08/13 03:17:36;;;;;;;8.67;5.87;;;;;;;;;;6153564;28;20224;-66
2023/08/13 03:20:37;;;;;;;5.87;5.37;;;;;;;;;;6175073;28;20204;-65
2023/08/13 03:23:38;;;;;;;6.20;5.60;;;;;;;;;;6175293;28;20185;-65
2023/08/13 03:26:39;;;;;;;5.93;5.33;;;;;;;;;;6173947;28;20216;-65
2023/08/13 03:29:40;;;;;;;6.00;5.40;;;;;;;;;;6175270;28;20251;-65
2023/08/13 03:32:41;;;;;;;6.60;6.00;;;;;;;;;;6160110;28;20197;-65
2023/08/13 03:35:42;;;;;;;9.13;5.40;;;;;;;;;;6167533;28;20192;-65
2023/08/13 03:38:43;;;;;;;6.37;5.80;;;;;;;;;;6161251;28;20208;-65
2023/08/13 03:41:44;;;;;;;5.90;5.30;;;;;;;;;;6160005;28;20271;-65
2023/08/13 03:44:46;;;;;;;7.73;5.97;;;;;;;;;;6162430;28;20192;-65
2023/08/13 03:47:47;;;;;;;6.03;5.23;;;;;;;;;;6176978;28;20287;-65
2023/08/13 03:50:48;;;;;;;6.40;5.80;;;;;;;;;;6160501;28;20203;-65
2023/08/13 03:53:49;;;;;;;5.77;5.27;;;;;;;;;;6153796;28;20292;-65
2023/08/13 03:56:50;;;;;;;5.93;5.40;;;;;;;;;;6164830;28;20208;-65
2023/08/13 03:59:51;;;;;;;6.37;5.83;;;;;;;;;;6166441;28;20252;-65
2023/08/13 04:02:52;;;;;;;6.43;5.67;;;;;;;;;;6159835;28;20247;-66
2023/08/13 04:05:53;;;;;;;7.37;5.80;;;;;;;;;;6160539;28;20245;-66
2023/08/13 04:08:54;;;;;;;5.73;5.23;;;;;;;;;;6159660;28;20206;-65
2023/08/13 04:11:56;;;;;;;6.60;5.90;;;;;;;;;;6158865;28;20222;-65
2023/08/13 04:14:57;;;;;;;5.97;5.47;;;;;;;;;;6169486;28;20224;-66
2023/08/13 04:17:58;;;;;;;6.83;6.23;;;;;;;;;;6163226;28;20197;-66
2023/08/13 04:20:59;;;;;;;5.77;5.27;;;;;;;;;;6170469;28;20219;-65
2023/08/13 04:24:00;;;;;;;6.43;5.73;;;;;;;;;;6152727;28;20271;-65
2023/08/13 04:27:01;;;;;;;7.87;5.77;;;;;;;;;;6187492;28;20224;-65
2023/08/13 04:30:02;;;;;;;6.17;5.50;;;;;;;;;;6137068;28;20212;-65
2023/08/13 04:33:03;;;;;;;6.43;5.87;;;;;;;;;;6156260;28;20223;-65
2023/08/13 04:36:04;;;;;;;6.50;5.90;;;;;;;;;;6154314;28;20196;-65
2023/08/13 04:39:05;;;;;;;6.30;5.70;;;;;;;;;;6159069;28;20196;-65
2023/08/13 04:42:06;;;;;;;7.27;5.60;;;;;;;;;;6166380;28;20228;-65
2023/08/13 04:45:08;;;;;;;6.03;5.17;;;;;;;;;;6151854;28;20193;-65
2023/08/13 04:48:09;;;;;;;6.73;6.13;;;;;;;;;;6172899;28;20186;-65
2023/08/13 04:51:10;;;;;;;6.37;5.73;;;;;;;;;;6151305;28;20235;-65
2023/08/13 04:54:11;;;;;;;7.20;6.50;;;;;;;;;;6180907;28;20189;-63
2023/08/13 04:57:12;;;;;;;6.00;5.50;;;;;;;;;;6156574;28;20191;-65
2023/08/13 05:00:13;;;;;;;6.30;5.80;;;;;;;;;;6173226;28;20208;-64
2023/08/13 05:03:14;;;;;;;6.60;6.03;;;;;;;;;;6153053;28;20274;-65
2023/08/13 05:06:15;;;;;;;9.07;6.10;;;;;;;;;;6156030;28;20240;-64
2023/08/13 05:09:17;;;;;;;8.07;6.10;;;;;;;;;;6156203;28;20279;-65
2023/08/13 05:12:18;;;;;;;6.63;5.90;;;;;;;;;;6158194;28;20196;-64
2023/08/13 05:15:19;;;;;;;6.93;6.33;;;;;;;;;;6165180;28;20288;-65
2023/08/13 05:18:20;;;;;;;7.47;6.77;;;;;;;;;;6156933;28;20194;-65
2023/08/13 05:21:21;;;;;;;6.90;6.30;;;;;;;;;;6172663;28;20227;-63
2023/08/13 05:24:22;;;;;;;6.70;5.97;;;;;;;;;;6175966;28;20196;-63
2023/08/13 05:27:23;;;;;;;7.00;6.23;;;;;;;;;;6164246;28;20196;-64
2023/08/13 05:30:24;;;;;;;7.37;6.60;;;;;;;;;;6177813;28;20192;-65
2023/08/13 05:33:25;;;;;;;7.90;7.10;;;;;;;;;;6174826;28;20201;-62
2023/08/13 05:36:26;;;;;;;6.77;6.17;;;;;;;;;;6163297;28;20282;-63
2023/08/13 05:39:27;;;;;;;9.87;6.90;;;;;;;;;;6179334;28;20201;-65
2023/08/13 05:42:28;;;;;;;7.33;6.73;;;;;;;;;;6174784;28;20235;-63
2023/08/13 05:45:29;;;;;;;7.33;6.67;;;;;;;;;;6165369;28;20192;-62
2023/08/13 05:48:30;;;;;;;6.67;6.07;;;;;;;;;;6173870;28;20196;-62
2023/08/13 05:51:31;;;;;;;7.63;6.87;;;;;;;;;;6163454;28;20196;-63
2023/08/13 05:54:32;;;;;;;6.83;6.20;;;;;;;;;;6163655;28;20205;-65
2023/08/13 05:57:34;;;;;;;7.77;6.97;;;;;;;;;;6162784;28;20256;-66
2023/08/13 06:00:36;;;;;;;8.03;6.70;;;;;;;;;;6158858;28;20204;-66
2023/08/13 06:03:37;;;;;;;6.70;6.10;;;;;;;;;;6162430;28;20198;-66
2023/08/13 06:06:38;;;;;;;7.70;7.00;;;;;;;;;;6154696;28;20329;-66
2023/08/13 06:09:39;;;;;;;7.20;6.57;;;;;;;;;;6176523;28;20216;-62
2023/08/13 06:12:40;;;;;;;8.63;6.70;;;;;;;;;;6169208;28;20196;-65
2023/08/13 06:15:41;;;;;;;7.17;6.57;;;;;;;;;;6161767;28;20193;-66
2023/08/13 06:18:42;;;;;;;8.03;6.60;;;;;;;;;;6161426;28;20197;-66
2023/08/13 06:21:43;;;;;;;7.20;6.50;;;;;;;;;;6159087;28;20223;-66
2023/08/13 06:24:44;;;;;;;7.57;6.83;;;;;;;;;;6177781;28;20185;-67
2023/08/13 06:27:46;;;;;;;7.47;6.80;;;;;;;;;;6161447;28;20286;-66
2023/08/13 06:30:47;;;;;;;7.23;6.63;;;;;;;;;;6161991;28;20196;-66
2023/08/13 06:33:48;;;;;;;7.27;6.67;;;;;;;;;;6163593;28;20207;-66
2023/08/13 06:36:49;;;;;;;7.87;7.13;;;;;;;;;;6168084;28;20200;-66
2023/08/13 06:39:50;;;;;;;7.03;6.33;;;;;;;;;;6177699;28;20198;-64
2023/08/13 06:42:51;;;;;;;7.47;6.63;;;;;;;;;;6177628;28;20232;-65
2023/08/13 06:45:52;;;;;;;7.10;6.43;;;;;;;;;;6170189;28;20248;-67
2023/08/13 06:48:53;;;;;;;7.17;6.40;;;;;;;;;;6171019;28;20200;-68
2023/08/13 06:51:54;;;;;;;7.20;6.50;;;;;;;;;;6162367;28;20200;-67
2023/08/13 06:54:55;;;;;;;7.40;6.80;;;;;;;;;;6174653;28;20235;-66
2023/08/13 06:57:56;;;;;;;6.50;5.90;;;;;;;;;;6167679;28;20204;-69
2023/08/13 07:00:57;;;;;;;7.40;6.70;;;;;;;;;;6170971;28;20258;-67
2023/08/13 07:03:58;;;;;;;7.03;6.43;;;;;;;;;;6174707;28;20185;-68
2023/08/13 07:06:59;;;;;;;7.33;6.73;;;;;;;;;;6174016;28;20236;-67
2023/08/13 07:10:00;;;;;;;7.37;6.77;;;;;;;;;;6156421;28;20251;-65
2023/08/13 07:13:01;;;;;;;7.30;6.67;;;;;;;;;;6171683;28;20205;-65
2023/08/13 07:16:02;;;;;;;8.33;7.03;;;;;;;;;;6161242;28;20287;-65
2023/08/13 07:19:03;;;;;;;8.23;7.00;;;;;;;;;;6161195;28;20251;-65
2023/08/13 07:22:04;;;;;;;7.33;6.63;;;;;;;;;;6171551;28;20220;-65
2023/08/13 07:25:06;;;;;;;9.40;8.30;;;;;;;;;;6163041;28;20216;-65
2023/08/13 07:28:07;;;;;;;7.93;7.17;;;;;;;;;;6167591;28;20199;-65
2023/08/13 07:31:09;;;;;;;7.03;6.33;;;;;;;;;;6158144;28;20196;-65
2023/08/13 07:34:10;;;;;;;7.93;7.20;;;;;;;;;;6156829;28;20197;-65
2023/08/13 07:37:12;;;;;;;7.17;6.57;;;;;;;;;;6163826;28;20214;-65
2023/08/13 07:40:13;;;;;;;6.97;6.40;;;;;;;;;;6174785;28;20200;-65
2023/08/13 07:43:14;;;;;;;7.30;6.77;;;;;;;;;;6158074;28;20310;-65
2023/08/13 07:46:15;;;;;;;7.07;6.40;;;;;;;;;;6174982;28;20196;-65
2023/08/13 07:49:16;;;;;;;7.37;6.77;;;;;;;;;;6157717;28;20194;-65
2023/08/13 07:52:18;;;;;;;7.20;6.60;;;;;;;;;;6162409;28;20201;-65
2023/08/13 07:55:20;;;;;;;6.60;6.10;;;;;;;;;;6171168;28;20196;-65
2023/08/13 07:58:21;;;;;;;6.90;6.23;;;;;;;;;;6158736;28;20207;-65
2023/08/13 08:01:22;;;;;;;7.03;6.43;;;;;;;;;;6167523;28;20227;-65
2023/08/13 08:04:23;;;;;;;6.97;6.10;;;;;;;;;;6169046;28;20195;-65
2023/08/13 08:07:25;;;;;;;6.77;6.20;;;;;;;;;;6169193;28;20219;-65
2023/08/13 08:10:26;;;;;;;6.47;5.97;;;;;;;;;;6164757;28;20201;-65
2023/08/13 08:13:27;;;;;;;6.40;5.90;;;;;;;;;;6178775;28;20196;-65
2023/08/13 08:16:28;;;;;;;6.90;6.20;;;;;;;;;;6169936;28;20196;-65
2023/08/13 08:19:29;;;;;;;6.77;6.13;;;;;;;;;;6164080;28;20199;-65
2023/08/13 08:22:31;;;;;;;7.47;6.77;;;;;;;;;;6167484;28;20219;-65
2023/08/13 08:25:32;;;;;;;7.60;6.80;;;;;;;;;;6156738;28;20189;-65
2023/08/13 08:28:33;;;;;;;7.10;6.37;;;;;;;;;;6162966;28;20218;-65
2023/08/13 08:31:34;;;;;;;6.90;6.40;;;;;;;;;;6171860;28;20295;-65
2023/08/13 08:34:35;;;;;;;6.87;6.37;;;;;;;;;;6157689;28;20192;-65
2023/08/13 08:37:36;;;;;;;7.63;6.50;;;;;;;;;;6152450;28;20212;-65
2023/08/13 08:40:37;;;;;;;6.93;6.33;;;;;;;;;;6172934;28;20242;-65
2023/08/13 08:43:38;;;;;;;8.33;7.53;;;;;;;;;;6156641;28;20215;-65
2023/08/13 08:46:39;;;;;;;7.80;6.70;;;;;;;;;;6157632;28;20192;-65
2023/08/13 08:49:41;;;;;;;6.47;5.93;;;;;;;;;;6161830;28;20223;-65
2023/08/13 08:52:42;;;;;;;7.20;6.53;;;;;;;;;;6155439;28;20192;-65
2023/08/13 08:55:43;;;;;;;6.47;5.90;;;;;;;;;;6171229;28;20287;-65
2023/08/13 08:58:44;;;;;;;7.10;6.50;;;;;;;;;;6163158;28;20192;-65
2023/08/13 09:01:45;;;;;;;6.43;5.83;;;;;;;;;;6156917;28;20240;-65
2023/08/13 09:04:46;;;;;;;6.50;6.00;;;;;;;;;;6173167;28;20268;-65
2023/08/13 09:07:47;;;;;;;7.50;6.47;;;;;;;;;;6157803;28;20207;-65
2023/08/13 09:10:48;;;;;;;6.40;5.80;;;;;;;;;;6157515;28;20246;-67
2023/08/13 09:13:50;;;;;;;6.83;6.30;;;;;;;;;;6163449;28;20215;-66
2023/08/13 09:16:52;;;;;;;7.20;5.97;;;;;;;;;;6176762;28;20195;-66
2023/08/13 09:19:53;;;;;;;6.40;5.80;;;;;;;;;;6164482;28;20201;-66
2023/08/13 09:22:54;;;;;;;5.93;5.43;;;;;;;;;;6163225;28;20320;-66
2023/08/13 09:25:57;;;;;;;6.20;5.60;;;;;;;;;;6158094;28;20202;-66
2023/08/13 09:28:59;;;;;;;5.63;5.17;;;;;;;;;;6173153;28;20283;-66
2023/08/13 09:32:01;;;;;;;6.67;6.07;;;;;;;;;;6182488;28;20233;-66
2023/08/13 09:35:04;;;;;;;5.80;5.30;;;;;;;;;;6168462;28;20256;-66
2023/08/13 09:38:05;;;;;;;6.00;5.50;;;;;;;;;;6172908;28;20243;-66
2023/08/13 09:41:06;;;;;;;6.73;6.13;;;;;;;;;;6156684;28;20224;-66
2023/08/13 09:44:09;;;;;;;6.50;5.80;;;;;;;;;;6155549;28;20201;-66
2023/08/13 09:47:11;;;;;;;6.30;5.80;;;;;;;;;;6168761;28;20189;-66
2023/08/13 09:50:13;;;;;;;6.57;5.97;;;;;;;;;;6168403;28;20279;-66
2023/08/13 09:53:15;;;;;;;6.50;5.90;;;;;;;;;;6166769;28;20254;-66
2023/08/13 09:56:18;;;;;;;6.20;5.70;;;;;;;;;;6173008;28;20191;-66
2023/08/13 09:59:19;;;;;;;6.30;5.80;;;;;;;;;;6163849;28;20202;-66
2023/08/13 10:02:21;;;;;;;6.37;5.73;;;;;;;;;;6190398;28;20239;-66
2023/08/13 10:05:22;;;;;;;5.67;5.17;;;;;;;;;;6176452;28;20245;-66
2023/08/13 10:08:23;;;;;;;5.90;5.40;;;;;;;;;;6177312;28;20247;-66
2023/08/13 10:11:24;;;;;;;5.53;5.13;;;;;;;;;;6160033;28;20220;-66
2023/08/13 10:14:25;;;;;;;6.17;5.63;;;;;;;;;;6154523;28;20288;-66
2023/08/13 10:17:27;;;;;;;5.53;5.10;;;;;;;;;;6177646;28;20354;-66
2023/08/13 10:20:28;;;;;;;5.93;5.43;;;;;;;;;;6177840;28;20196;-66
2023/08/13 10:23:29;;;;;;;5.27;4.83;;;;;;;;;;6172262;28;20220;-66
2023/08/13 10:26:30;;;;;;;5.80;5.20;;;;;;;;;;6166856;28;20206;-66
2023/08/13 10:29:36;;;;;;;5.57;5.17;;;;;;;;;;6161785;28;20192;-66
2023/08/13 10:32:38;;;;;;;5.97;5.37;;;;;;;;;;6175642;28;20200;-66
2023/08/13 10:35:40;;;;;;;5.47;4.97;;;;;;;;;;6173737;28;20244;-66
2023/08/13 10:38:41;;;;;;;6.00;5.40;;;;;;;;;;6161709;28;20282;-66
2023/08/13 10:41:42;;;;;;;5.50;5.00;;;;;;;;;;6176667;28;20237;-66
2023/08/13 10:44:43;;;;;;;5.33;4.93;;;;;;;;;;6160394;28;20201;-66
2023/08/13 10:47:53;;;;;;;5.00;4.57;;;;;;;;;;6175552;28;20205;-66
2023/08/13 10:50:55;;;;;;;4.90;4.50;;;;;;;;;;6175726;28;20256;-66
2023/08/13 10:53:58;;;;;;;5.43;5.00;;;;;;;;;;6160101;28;20201;-66
2023/08/13 10:57:00;;;;;;;4.97;4.57;;;;;;;;;;6175033;28;20188;-66
2023/08/13 11:00:03;;;;;;;6.37;5.57;;;;;;;;;;6171524;28;20194;-66
2023/08/13 11:03:23;;;;;;;6.30;5.80;;;;;;;;;;6172430;28;20320;-66
2023/08/13 11:06:27;;;;;;;5.37;4.97;;;;;;;;;;6175152;28;20237;-66
2023/08/13 11:09:32;;;;;;;5.50;5.10;;;;;;;;;;6191708;28;20244;-66
2023/08/13 11:12:33;;;;;;;5.80;5.30;;;;;;;;;;6175844;28;20203;-66
2023/08/13 11:15:34;;;;;;;5.90;5.40;;;;;;;;;;6176618;28;20483;-66
2023/08/13 11:18:35;;;;;;;5.37;4.87;;;;;;;;;;6168862;28;20248;-66
2023/08/13 11:21:36;;;;;;;5.83;5.33;;;;;;;;;;6160426;28;20211;-66
2023/08/13 11:24:37;;;;;;;5.43;4.73;;;;;;;;;;6167285;28;20200;-66
2023/08/13 11:27:39;;;;;;;5.93;5.30;;;;;;;;;;6168815;28;20259;-66
2023/08/13 11:30:40;;;;;;;5.47;5.07;;;;;;;;;;6155812;28;20208;-66
2023/08/13 11:33:41;;;;;;;5.67;5.17;;;;;;;;;;6159166;28;20212;-66
2023/08/13 11:36:52;;;;;;;5.43;4.30;;;;;;;;;;6152096;28;20232;-66
2023/08/13 11:39:53;;;;;;;5.37;4.50;;;;;;;;;;6176509;28;20193;-66
2023/08/13 11:42:57;;;;;;;5.03;4.50;;;;;;;;;;6160295;28;20231;-66
2023/08/13 11:45:58;;;;;;;5.23;4.83;;;;;;;;;;6172190;28;20197;-66
2023/08/13 11:49:01;;;;;;;4.80;4.40;;;;;;;;;;6174438;28;20205;-66
2023/08/13 11:52:06;;;;;;;4.73;4.20;;;;;;;;;;6174360;28;20205;-66
2023/08/13 11:55:07;;;;;;;4.57;4.17;;;;;;;;;;6175646;28;20200;-66
2023/08/13 11:58:08;;;;;;;4.30;4.00;;;;;;;;;;6186764;28;20315;-66
2023/08/13 12:01:11;;;;;;;4.60;4.13;;;;;;;;;;6174635;28;20272;-66
2023/08/13 12:04:12;;;;;;;4.60;4.20;;;;;;;;;;6175268;28;20204;-66
2023/08/13 12:07:12;;;;;;;4.70;4.20;;;29.00;62.50;;;;;;6158754;28;20251;-66
2023/08/13 12:10:13;;;;;;;4.37;3.90;;;;;;;;;;6157484;28;20205;-66
2023/08/13 12:13:14;;;;;;;4.17;3.87;;;;;;;;;;6159349;28;20207;-66
2023/08/13 12:16:15;;;;;;;4.77;4.07;;;;;;;;;;6158882;28;20192;-63
2023/08/13 12:19:16;;;;;;;4.77;3.73;;;;;;;;;;6183552;28;20286;-64
2023/08/13 12:22:17;;;;;;;4.30;3.90;;;;;;;;;;6154125;28;20220;-64
2023/08/13 12:25:18;;;;;;;3.70;3.30;;;;;;;;;;6182369;28;20196;-64
2023/08/13 12:28:19;;;;;;;3.75;3.50;;;;;;;;;;6188393;28;20235;-64
2023/08/13 12:31:22;;;;;;;3.47;3.17;;;36.90;46.80;;;;;;6156299;28;20206;-63
2023/08/13 12:34:22;;;;;;;3.50;3.20;;;37.70;44.60;;;;;;6169568;28;20274;-64
2023/08/13 12:37:24;;;;;;;3.30;3.00;;;37.70;44.80;;;;;;6142120;28;20423;-64
2023/08/13 12:40:25;;;;;;;3.55;3.25;;;37.90;42.70;;;;;;6159784;28;20197;-64
2023/08/13 12:43:26;;;;;;;3.60;3.30;;;38.70;41.50;;;;;;6146475;28;20284;-64
2023/08/13 12:46:27;;;;;;;3.90;3.55;;;;;;;;;;6160330;28;20312;-64
2023/08/13 12:49:27;;;;;;;3.85;3.55;;;39.90;40.00;;;;;;6159406;28;20203;-64
2023/08/13 12:52:28;;;;;;;3.40;3.10;;;39.90;40.40;;;;;;6160221;28;20195;-64
2023/08/13 12:55:29;;;;;;;4.07;3.53;;;;;;;;;;6159063;28;20223;-64
2023/08/13 12:58:33;;;;;;;3.63;3.33;;;;;;;;;;6152117;28;20188;-64
2023/08/13 13:01:34;;;;;;;3.50;3.20;;;;;;;;;;6172936;28;20312;-62
2023/08/13 13:04:35;;;;;;;4.30;3.25;;;;;;;;;;6170707;28;20508;-65
2023/08/13 13:07:36;;;;;;;4.13;3.83;;;;;;;;;;6169750;28;20203;-65
2023/08/13 13:10:37;;;;;;;3.75;3.45;;;;;;;;;;6174621;28;20364;-68
2023/08/13 13:13:38;;;;;;;4.80;3.38;;;36.50;45.90;;;;;;6168957;28;20196;-68
2023/08/13 13:16:39;;;;;;;3.70;3.40;;;36.70;46.30;;;;;;6154416;28;20205;-67
2023/08/13 13:19:39;;;;;;;5.13;3.47;;;36.10;45.70;;;;;;6167459;28;20195;-65
2023/08/13 13:22:41;;;;;;;3.97;3.30;;;36.00;47.80;;;;;;6160117;28;20226;-66
2023/08/13 13:25:42;;;;;;;7.17;4.40;;;35.70;47.10;;;;;;6172136;28;20256;-66
2023/08/13 13:28:43;;;;;;;4.20;3.90;;;35.40;47.60;;;;;;6156613;28;20203;-66
2023/08/13 13:31:44;;;;;;;3.97;3.57;;;34.80;48.00;;;;;;6155809;28;20204;-67
2023/08/13 13:34:45;;;;;;;4.80;4.40;;;34.60;49.70;;;;;;6158881;28;20271;-66
2023/08/13 13:37:46;;;;;;;4.63;3.90;;;;;;;;;;6165237;28;20204;-66
2023/08/13 13:40:47;;;;;;;3.97;3.57;;;;;;;;;;6161913;28;20192;-67
2023/08/13 13:43:49;;;;;;;3.93;3.63;;;;;;;;;;6171321;28;20181;-65
2023/08/13 13:46:50;;;;;;;4.67;3.80;;;;;;;;;;6178679;28;20188;-65
2023/08/13 13:49:51;;;;;;;4.40;4.10;;;;;;;;;;6158331;28;20196;-65
2023/08/13 13:52:52;;;;;;;3.97;3.67;;;;;;;;;;6153210;28;20195;-65
2023/08/13 13:55:53;;;;;;;4.60;4.03;;;;;;;;;;6149027;28;20203;-64
2023/08/13 13:58:54;;;;;;;4.20;3.90;;;;;;;;;;6161192;28;20295;-65
2023/08/13 14:01:55;;;;;;;4.33;3.93;;;;;;;;;;6178163;28;20218;-65
2023/08/13 14:04:56;;;;;;;4.10;3.70;;;;;;;;;;6178349;28;20236;-64
2023/08/13 14:07:57;;;;;;;4.77;3.80;;;;;;;;;;6162967;28;20196;-64
2023/08/13 14:10:58;;;;;;;4.63;3.77;;;;;;;;;;6182378;28;20180;-64
2023/08/13 14:13:59;;;;;;;4.73;3.93;;;;;;;;;;6160966;28;20230;-66
2023/08/13 14:17:00;;;;;;;4.20;3.90;;;;;;;;;;6171962;28;20202;-66
2023/08/13 14:20:01;;;;;;;3.90;3.60;;;;;;;;;;6151767;28;20207;-66
2023/08/13 14:23:02;;;;;;;4.10;3.70;;;;;;;;;;6162231;28;20291;-66
2023/08/13 14:26:03;;;;;;;4.40;4.00;;;;;;;;;;6152216;28;20192;-66
2023/08/13 14:29:04;;;;;;;3.97;3.67;;;;;;;;;;6171295;28;20430;-66
2023/08/13 14:32:06;;;;;;;4.33;4.03;;;;;;;;;;6162181;28;20208;-66
2023/08/13 14:35:07;;;;;;;4.40;3.53;;;;;;;;;;6177961;28;20223;-66
2023/08/13 14:38:08;;;;;;;3.97;3.67;;;;;;;;;;6152817;28;20204;-66
2023/08/13 14:41:09;;;;;;;4.03;3.63;;;;;;;;;;6160773;28;20223;-65
2023/08/13 14:44:10;;;;;;;3.80;3.50;;;33.40;51.40;;;;;;6167339;28;20192;-65
2023/08/13 14:47:10;;;;;;;4.37;3.80;;;33.30;51.60;;;;;;6163085;28;20203;-67
2023/08/13 14:50:11;;;;;;;4.67;3.80;;;33.10;52.30;;;;;;6157405;28;20193;-67
2023/08/13 14:53:11;;;;;;;3.53;3.30;;;33.00;52.70;;;;;;6144042;28;20222;-67
2023/08/13 14:56:12;;;;;;;5.03;3.30;;;33.00;52.60;;;;;;6168127;28;20196;-68
2023/08/13 14:59:13;;;;;;;4.57;4.00;;;33.00;52.90;;;;;;6162262;28;20200;-67
2023/08/13 15:02:14;;;;;;;4.03;3.73;;;33.00;51.90;;;;;;6160976;28;20237;-66
2023/08/13 15:05:15;;;;;;;3.77;3.47;;;;;;;;;;6143629;28;20240;-66
2023/08/13 15:08:16;;;;;;;4.40;3.43;;;;;;;;;;6171667;28;20201;-66
2023/08/13 15:11:17;;;;;;;4.10;3.70;;;;;;;;;;6166420;28;20207;-67
2023/08/13 15:14:18;;;;;;;6.03;3.87;;;;;;;;;;6182940;28;20216;-67
2023/08/13 15:17:19;;;;;;;3.77;3.47;;;;;;;;;;6161664;28;20231;-65
2023/08/13 15:20:20;;;;;;;3.77;3.47;;;;;;;;;;6162690;28;20259;-66
2023/08/13 15:23:21;;;;;;;3.57;3.27;;;;;;;;;;6180629;28;20208;-66
2023/08/13 15:26:22;;;;;;;3.40;3.10;;;;;;;;;;6161076;28;20201;-66
2023/08/13 15:29:23;;;;;;;3.93;3.53;;;;;;;;;;6159948;28;20211;-66
2023/08/13 15:32:24;;;;;;;5.57;3.80;;;;;;;;;;6172638;28;20193;-66
2023/08/13 15:35:25;;;;;;;4.27;3.97;;;;;;;;;;6172358;28;20291;-66
2023/08/13 15:38:27;;;;;;;3.40;3.10;;;;;;;;;;6160415;28;20208;-66
2023/08/13 15:41:28;;;;;;;6.67;3.90;;;;;;;;;;6176273;28;20216;-65
2023/08/13 15:44:29;;;;;;;3.77;3.47;;;;;;;;;;6159758;28;20196;-65
2023/08/13 15:47:30;;;;;;;3.97;3.67;;;;;;;;;;6161307;28;20207;-65
2023/08/13 15:50:31;;;;;;;4.30;3.77;;;;;;;;;;6154640;28;20192;-64
2023/08/13 15:53:33;;;;;;;4.67;3.87;;;;;;;;;;6160784;28;20223;-64
2023/08/13 15:56:34;;;;;;;3.97;3.57;;;;;;;;;;6169866;28;20283;-65
2023/08/13 15:59:35;;;;;;;3.90;3.60;;;;;;;;;;6167233;28;20196;-64
2023/08/13 16:02:36;;;;;;;3.83;3.43;;;;;;;;;;6172556;28;20216;-65
2023/08/13 16:05:37;;;;;;;3.90;3.40;;;;;;;;;;6159986;28;20238;-65
2023/08/13 16:08:38;;;;;;;3.63;3.33;;;;;;;;;;6160319;28;20214;-65
2023/08/13 16:11:38;;;;;;;4.07;3.43;;;31.10;56.00;;;;;;6164601;28;20220;-65
2023/08/13 16:14:39;;;;;;;4.07;3.47;;;24.00;50.00;;;;;;6162178;28;20196;-65
2023/08/13 16:17:44;;;;;;;3.43;3.13;;;30.90;55.90;;;;;;6171008;28;20204;-63
2023/08/13 16:20:46;;;;;;;3.53;3.23;;;;;;;;;;6159142;28;20211;-64
2023/08/13 16:23:48;;;;;;;3.67;3.37;;;;;;;;;;6151081;28;20288;-64
2023/08/13 16:26:49;;;;;;;3.60;3.30;;;;;;;;;;6154687;28;20196;-64
2023/08/13 16:29:50;;;;;;;3.20;3.00;;;30.40;55.10;;;;;;6175875;28;20192;-64
2023/08/13 16:32:50;;;;;;;4.10;3.70;;;30.40;55.20;;;;;;6152549;28;20196;-64
2023/08/13 16:35:52;;;;;;;2.90;2.70;;;;;;;;;;6151700;28;20193;-64
2023/08/13 16:38:52;;;;;;;3.30;3.00;;;30.30;56.50;;;;;;6160027;28;20197;-64
2023/08/13 16:41:53;;;;;;;3.90;3.10;;;30.10;56.20;;;;;;6153689;28;20223;-64
2023/08/13 16:44:54;;;;;;;3.77;3.47;;;30.00;56.10;;;;;;6160300;28;20200;-64
2023/08/13 16:47:54;;;;;;;3.17;2.97;;;30.00;55.90;;;;;;6143552;28;20203;-64
2023/08/13 16:50:56;;;;;;;3.63;3.33;;;30.00;55.70;;;;;;6158638;28;20196;-64
2023/08/13 16:53:57;;;;;;;3.80;3.50;;;29.90;56.70;;;;;;6150651;28;20201;-64
2023/08/13 16:56:58;;;;;;;3.40;3.10;;;29.80;57.20;;;;;;6173150;28;20247;-64
2023/08/13 17:00:00;;;;;;;3.60;3.30;;;29.70;57.00;;;;;;6158125;28;20208;-65
2023/08/13 17:03:01;;;;;;;3.67;3.37;;;29.60;56.80;;;;;;6163284;28;20228;-62
2023/08/13 17:06:02;;;;;;;4.33;4.00;;;;;;;;;;6145293;28;20275;-66
2023/08/13 17:09:03;;;;;;;4.03;3.40;;;24.00;50.00;;;;;;6158091;28;20192;-66
2023/08/13 17:12:05;;;;;;;3.60;3.30;;;;;;;;;;6156820;28;20188;-65
2023/08/13 17:15:07;;;;;;;3.80;3.50;;;;;;;;;;6157767;28;20279;-65
2023/08/13 17:18:08;;;;;;;3.50;3.20;;;29.00;58.60;;;;;;6170096;28;20193;-65
2023/08/13 17:21:11;;;;;;;3.53;3.33;;;28.90;58.60;;;;;;6155527;28;20283;-65
2023/08/13 17:24:12;;;;;;;3.47;3.17;;;;;;;;;;6162387;28;20291;-65
2023/08/13 17:27:13;;;;;;;3.70;3.40;;;;;;;;;;6164821;28;20279;-65
2023/08/13 17:30:15;;;;;;;3.67;3.37;;;;;;;;;;6160466;28;20243;-66
2023/08/13 17:33:16;;;;;;;3.70;3.40;;;;;;;;;;6158666;28;20207;-66
2023/08/13 17:36:18;;;;;;;4.03;3.10;;;;;;;;;;6153819;28;20290;-65
2023/08/13 17:39:19;;;;;;;6.43;4.83;;;;;;;;;;6158569;28;20193;-66
2023/08/13 17:42:21;;;;;;;6.13;4.97;;;;;;;;;;6167702;28;20278;-66
2023/08/13 17:45:23;;;;;;;7.20;5.70;;;;;;;;;;6170303;28;20216;-66
2023/08/13 17:48:24;;;;;;;12.23;8.43;;;;;;;;;;6172176;28;20254;-67